Time;durP1;ratioP1;P1;durP2;ratioP2;P2;SDS_P1;SDS_P2;PMS_P1;PMS_P2;Temp;Humidity;BMP_temperature;BMP_pressure;BME280_temperature;BME280_humidity;BME280_pressure;Samples;Min_cycle;Max_cycle;Signal;HPM_P1;HPM_P2
2023/03/08 00:02:14;;;;;;;36.15;14.40;;;1.30;99.90;;;;;;5033256;28;20452;-81
2023/03/08 00:04:41;;;;;;;36.70;15.18;;;1.30;99.90;;;;;;5035096;28;20033;-82
2023/03/08 00:07:08;;;;;;;33.25;14.23;;;1.40;99.90;;;;;;5033990;28;20060;-82
2023/03/08 00:12:06;;;;;;;38.75;14.75;;;1.40;99.90;;;;;;5050581;28;20046;-82
2023/03/08 00:14:32;;;;;;;38.97;15.38;;;1.40;99.90;;;;;;5033227;28;20357;-82
2023/03/08 00:16:59;;;;;;;38.03;15.82;;;1.40;99.90;;;;;;5033816;28;20494;-82
2023/03/08 00:19:28;;;;;;;40.17;15.20;;;1.40;99.90;;;;;;5033715;28;20095;-82
2023/03/08 00:21:54;;;;;;;36.97;15.13;;;1.40;99.90;;;;;;5016725;28;20056;-82
2023/03/08 00:24:21;;;;;;;39.03;15.95;;;1.50;99.90;;;;;;5033704;28;20107;-82
2023/03/08 00:26:48;;;;;;;35.35;14.93;;;1.50;99.90;;;;;;5017341;28;20467;-82
2023/03/08 00:29:17;;;;;;;36.50;14.82;;;1.50;99.90;;;;;;5032719;28;20059;-83
2023/03/08 00:31:43;;;;;;;38.55;14.85;;;1.50;99.90;;;;;;5034793;28;20056;-82
2023/03/08 00:34:10;;;;;;;39.80;16.30;;;1.60;99.90;;;;;;5015678;28;20050;-82
2023/03/08 00:36:39;;;;;;;36.67;14.88;;;1.60;99.90;;;;;;5014855;28;20454;-83
2023/03/08 00:39:07;;;;;;;45.30;16.83;;;1.60;99.90;;;;;;5016889;28;20045;-82
2023/03/08 00:41:35;;;;;;;43.83;17.20;;;1.60;99.90;;;;;;5032933;28;20045;-82
2023/03/08 00:44:02;;;;;;;42.05;17.08;;;1.60;99.90;;;;;;5033497;28;20052;-82
2023/03/08 00:46:28;;;;;;;36.90;15.35;;;1.60;99.90;;;;;;5033912;28;20050;-82
2023/03/08 00:48:58;;;;;;;41.78;17.63;;;1.60;99.90;;;;;;5016093;28;20062;-81
2023/03/08 00:51:25;;;;;;;40.20;16.80;;;1.60;99.90;;;;;;5033540;28;20076;-81
2023/03/08 00:53:51;;;;;;;41.53;16.38;;;1.60;99.90;;;;;;5033500;28;20353;-83
2023/03/08 00:56:18;;;;;;;46.45;17.42;;;1.60;99.90;;;;;;5032691;28;20061;-82
2023/03/08 00:58:45;;;;;;;36.25;15.75;;;1.70;99.90;;;;;;5036792;28;20038;-83
2023/03/08 01:01:12;;;;;;;43.22;17.33;;;1.70;99.90;;;;;;5020535;28;20038;-82
2023/03/08 01:03:39;;;;;;;39.30;16.10;;;1.70;99.90;;;;;;5021105;28;20068;-83
2023/03/08 01:06:06;;;;;;;39.17;17.00;;;1.70;99.90;;;;;;5021003;28;20383;-82
2023/03/08 01:08:33;;;;;;;45.05;17.83;;;1.70;99.90;;;;;;5019956;28;20045;-82
2023/03/08 01:11:00;;;;;;;43.35;17.27;;;1.70;99.90;;;;;;5037343;28;20049;-83
2023/03/08 01:13:27;;;;;;;44.72;16.85;;;1.70;99.90;;;;;;5020808;28;20052;-81
2023/03/08 01:15:54;;;;;;;42.58;16.00;;;1.70;99.90;;;;;;5036346;28;20053;-81
2023/03/08 01:18:21;;;;;;;44.05;17.63;;;1.70;99.90;;;;;;5042644;28;20037;-81
2023/03/08 01:20:49;;;;;;;41.55;17.23;;;1.70;99.90;;;;;;5056307;28;20041;-81
2023/03/08 01:23:16;;;;;;;43.47;16.58;;;1.70;99.90;;;;;;5056997;28;20048;-82
2023/03/08 01:25:42;;;;;;;47.50;18.27;;;1.70;99.90;;;;;;5058018;28;20095;-82
2023/03/08 01:30:56;;;;;;;39.78;16.15;;;1.70;99.90;;;;;;5056833;28;20067;-82
2023/03/08 01:33:23;;;;;;;45.03;17.13;;;1.70;99.90;;;;;;5040186;28;20070;-82
2023/03/08 01:35:50;;;;;;;51.90;19.58;;;1.80;99.90;;;;;;5055814;28;20434;-82
2023/03/08 01:38:19;;;;;;;43.83;17.20;;;1.80;99.90;;;;;;5057510;28;20120;-82
2023/03/08 01:40:46;;;;;;;42.47;16.80;;;1.80;99.90;;;;;;5040339;28;20478;-82
2023/03/08 01:43:12;;;;;;;46.88;19.45;;;1.80;99.90;;;;;;5056554;28;20041;-83
2023/03/08 01:45:39;;;;;;;45.67;18.75;;;1.90;99.90;;;;;;5056950;28;20459;-82
2023/03/08 01:48:07;;;;;;;43.42;17.88;;;1.80;99.90;;;;;;5038911;28;20049;-82
2023/03/08 01:50:55;;;;;;;40.30;16.42;;;1.90;99.90;;;;;;5056508;28;20140;-82
2023/03/08 01:53:22;;;;;;;39.97;16.65;;;1.90;99.90;;;;;;5056409;28;20485;-82
2023/03/08 01:55:49;;;;;;;41.60;16.60;;;1.90;99.90;;;;;;5056464;28;20052;-81
2023/03/08 01:58:16;;;;;;;39.25;17.77;;;1.80;99.90;;;;;;5039560;28;20447;-81
2023/03/08 02:00:43;;;;;;;36.40;16.38;;;1.90;99.90;;;;;;5039830;28;20047;-81
2023/03/08 02:03:10;;;;;;;35.03;15.48;;;1.80;99.90;;;;;;5038843;28;20056;-82
2023/03/08 02:05:37;;;;;;;37.38;16.20;;;1.80;99.90;;;;;;5039742;28;20037;-82
2023/03/08 02:08:13;;;;;;;38.88;15.77;;;1.90;99.90;;;;;;5039287;28;20106;-83
2023/03/08 02:10:42;;;;;;;38.97;16.05;;;1.80;99.90;;;;;;5056215;28;20045;-82
2023/03/08 02:13:08;;;;;;;36.30;15.18;;;1.80;99.90;;;;;;5039503;28;20041;-81
2023/03/08 02:15:38;;;;;;;34.78;14.23;;;1.80;99.90;;;;;;5055110;28;20480;-81
2023/03/08 02:18:05;;;;;;;41.47;15.38;;;1.90;99.90;;;;;;5035367;28;20726;-82
2023/03/08 02:20:32;;;;;;;38.97;15.15;;;1.90;99.90;;;;;;5036014;28;20041;-83
2023/03/08 02:23:05;;;;;;;41.60;15.82;;;1.90;99.90;;;;;;5019415;28;20037;-82
2023/03/08 02:25:31;;;;;;;37.25;16.17;;;1.90;99.90;;;;;;5035920;28;20052;-82
2023/03/08 02:27:58;;;;;;;40.88;15.88;;;1.90;99.90;;;;;;5034963;28;20101;-82
2023/03/08 02:30:25;;;;;;;38.70;16.35;;;1.90;99.90;;;;;;5019405;28;20041;-83
2023/03/08 02:32:52;;;;;;;34.30;15.07;;;1.90;99.90;;;;;;5035819;28;20119;-82
2023/03/08 02:35:19;;;;;;;38.80;15.77;;;1.90;99.90;;;;;;5034554;28;20057;-81
2023/03/08 02:37:45;;;;;;;36.28;14.10;;;2.00;99.90;;;;;;5035366;28;20088;-82
2023/03/08 02:40:12;;;;;;;36.55;13.88;;;2.00;99.90;;;;;;5036159;28;20047;-83
2023/03/08 02:42:39;;;;;;;33.63;14.38;;;2.00;99.90;;;;;;5035844;28;20375;-83
2023/03/08 02:45:05;;;;;;;37.55;14.43;;;2.10;99.90;;;;;;5019079;28;20375;-83
2023/03/08 02:47:32;;;;;;;36.00;15.18;;;2.10;99.90;;;;;;5018110;28;20388;-82
2023/03/08 02:50:00;;;;;;;37.00;14.70;;;2.10;99.90;;;;;;5035155;28;20191;-82
2023/03/08 02:52:27;;;;;;;37.33;14.43;;;2.10;99.90;;;;;;5035384;28;20038;-82
2023/03/08 02:54:53;;;;;;;37.10;14.40;;;2.10;99.90;;;;;;5034455;28;20145;-83
2023/03/08 02:57:21;;;;;;;36.05;15.00;;;2.10;99.90;;;;;;5019567;28;20111;-82
2023/03/08 02:59:51;;;;;;;38.08;15.75;;;2.10;99.90;;;;;;5018755;28;20132;-83
2023/03/08 03:02:18;;;;;;;34.53;13.52;;;2.10;99.90;;;;;;5018565;28;20042;-82
2023/03/08 03:04:45;;;;;;;35.38;14.25;;;2.10;99.90;;;;;;5019228;28;20049;-82
2023/03/08 03:07:11;;;;;;;36.25;14.10;;;2.20;99.90;;;;;;5035383;28;20095;-81
2023/03/08 03:09:39;;;;;;;33.53;13.57;;;2.10;99.90;;;;;;5034221;28;20056;-82
2023/03/08 03:12:06;;;;;;;33.67;13.52;;;2.10;99.90;;;;;;5018718;28;20042;-82
2023/03/08 03:14:36;;;;;;;34.15;13.65;;;2.10;99.90;;;;;;5018417;28;20111;-82
2023/03/08 03:17:03;;;;;;;34.95;13.77;;;2.10;99.90;;;;;;5034848;28;20110;-81
2023/03/08 03:19:32;;;;;;;34.05;13.88;;;2.10;99.90;;;;;;5045825;28;20041;-82
2023/03/08 03:21:59;;;;;;;38.22;14.07;;;2.10;99.90;;;;;;5033933;28;20045;-82
2023/03/08 03:24:25;;;;;;;39.10;14.30;;;2.10;99.90;;;;;;5018301;28;20472;-83
2023/03/08 03:26:56;;;;;;;37.90;15.43;;;2.10;99.90;;;;;;5035444;28;20045;-82
2023/03/08 03:29:25;;;;;;;35.47;13.57;;;2.00;99.90;;;;;;5017586;28;20045;-81
2023/03/08 03:32:02;;;;;;;37.75;14.23;;;2.00;99.90;;;;;;5019859;28;20042;-81
2023/03/08 03:34:29;;;;;;;40.00;14.88;;;2.00;99.90;;;;;;5033780;28;20471;-82
2023/03/08 03:36:56;;;;;;;37.90;13.63;;;1.90;99.90;;;;;;5034186;28;20084;-82
2023/03/08 03:39:23;;;;;;;39.80;15.00;;;1.90;99.90;;;;;;5017854;28;20136;-82
2023/03/08 03:41:50;;;;;;;40.03;15.55;;;1.90;99.90;;;;;;5033592;28;20051;-82
2023/03/08 03:44:17;;;;;;;42.05;15.18;;;1.80;99.90;;;;;;5018181;28;20052;-80
2023/03/08 03:46:47;;;;;;;37.40;14.98;;;1.80;99.90;;;;;;5034344;28;20033;-81
2023/03/08 03:52:04;;;;;;;36.33;13.27;;;1.80;99.90;;;;;;5034813;28;20467;-82
2023/03/08 03:54:38;;;;;;;37.83;14.50;;;1.80;99.90;;;;;;5033377;28;20041;-81
2023/03/08 03:57:05;;;;;;;34.90;13.70;;;1.70;99.90;;;;;;5018077;28;20638;-81
2023/03/08 03:59:35;;;;;;;36.80;14.30;;;1.70;99.90;;;;;;5033800;28;20345;-81
2023/03/08 04:02:02;;;;;;;35.72;12.93;;;1.70;99.90;;;;;;5033239;28;20056;-81
2023/03/08 04:04:40;;;;;;;36.17;13.23;;;1.60;99.90;;;;;;5019221;28;20072;-82
2023/03/08 04:07:09;;;;;;;27.42;11.23;;;1.60;99.90;;;;;;5034398;28;20421;-82
2023/03/08 04:12:24;;;;;;;32.20;11.10;;;1.60;99.90;;;;;;5034541;28;20053;-82
2023/03/08 04:14:52;;;;;;;28.02;9.70;;;1.50;99.90;;;;;;5033107;28;20037;-81
2023/03/08 04:17:19;;;;;;;26.77;9.52;;;1.50;99.90;;;;;;5034163;28;20077;-83
2023/03/08 04:19:50;;;;;;;27.50;10.27;;;1.50;99.90;;;;;;5033860;28;20060;-82
2023/03/08 04:22:18;;;;;;;23.05;8.98;;;1.50;99.90;;;;;;5032916;28;20450;-81
2023/03/08 04:24:51;;;;;;;27.25;9.48;;;1.50;99.90;;;;;;5050325;28;20050;-81
2023/03/08 04:27:24;;;;;;;23.55;9.02;;;1.50;99.90;;;;;;5034537;28;20149;-80
2023/03/08 04:32:22;;;;;;;24.92;10.18;;;1.40;99.90;;;;;;5033499;28;20459;-81
2023/03/08 04:34:54;;;;;;;23.38;9.10;;;1.40;99.90;;;;;;5034004;28;20069;-82
2023/03/08 04:37:24;;;;;;;22.85;8.85;;;1.40;99.90;;;;;;5050061;28;20076;-83
2023/03/08 04:39:56;;;;;;;22.65;8.95;;;1.30;99.90;;;;;;5033426;28;20487;-81
2023/03/08 04:42:23;;;;;;;21.02;8.38;;;1.30;99.90;;;;;;5032760;28;20538;-81
2023/03/08 04:44:50;;;;;;;22.90;9.23;;;1.30;99.90;;;;;;5050102;28;20042;-81
2023/03/08 04:47:20;;;;;;;21.88;8.20;;;1.30;99.90;;;;;;5033501;28;20042;-81
2023/03/08 04:49:48;;;;;;;17.83;7.65;;;1.30;99.90;;;;;;5032521;28;20060;-81
2023/03/08 04:52:15;;;;;;;26.30;8.60;;;1.30;99.90;;;;;;5050059;28;20061;-81
2023/03/08 04:54:42;;;;;;;31.52;9.40;;;1.30;99.90;;;;;;5032633;28;20464;-80
2023/03/08 04:57:19;;;;;;;18.92;7.15;;;1.30;99.90;;;;;;5048531;28;20049;-82
2023/03/08 05:02:53;;;;;;;21.25;7.63;;;1.30;99.90;;;;;;5049128;28;20026;-81
2023/03/08 05:05:22;;;;;;;15.00;6.68;;;1.30;99.90;;;;;;5033340;28;20128;-81
2023/03/08 05:07:52;;;;;;;19.73;7.82;;;1.30;99.90;;;;;;5048711;28;20051;-81
2023/03/08 05:12:51;;;;;;;19.70;7.53;;;1.30;99.90;;;;;;5034452;28;20116;-82
2023/03/08 05:15:18;;;;;;;23.77;7.97;;;1.30;99.90;;;;;;5032856;28;20133;-81
2023/03/08 05:17:45;;;;;;;21.88;8.27;;;1.30;99.90;;;;;;5049502;28;20041;-81
2023/03/08 05:22:57;;;;;;;20.83;8.45;;;1.30;99.90;;;;;;5032469;28;20080;-82
2023/03/08 05:25:34;;;;;;;20.17;8.50;;;1.30;99.90;;;;;;5033315;28;20072;-81
2023/03/08 05:28:01;;;;;;;18.02;7.97;;;1.30;99.90;;;;;;5033005;28;20092;-81
2023/03/08 05:30:29;;;;;;;24.58;8.75;;;1.30;99.90;;;;;;5017171;28;20076;-80
2023/03/08 05:32:56;;;;;;;20.70;8.70;;;1.30;99.90;;;;;;5033096;28;20057;-83
2023/03/08 05:35:23;;;;;;;20.77;8.77;;;1.30;99.90;;;;;;5015952;28;20057;-82
2023/03/08 05:37:50;;;;;;;18.08;7.90;;;1.20;99.90;;;;;;5016832;28;20053;-82
2023/03/08 05:40:19;;;;;;;25.65;8.30;;;1.30;99.90;;;;;;5016681;28;20060;-80
2023/03/08 05:42:46;;;;;;;18.02;7.43;;;1.30;99.90;;;;;;5032513;28;20051;-81
2023/03/08 05:45:14;;;;;;;17.75;7.55;;;1.30;99.90;;;;;;5036702;28;20107;-79
2023/03/08 05:47:41;;;;;;;24.42;7.70;;;1.20;99.90;;;;;;5035449;28;20103;-79
2023/03/08 05:50:08;;;;;;;36.00;8.18;;;1.30;99.90;;;;;;5020323;28;20460;-80
2023/03/08 05:52:37;;;;;;;18.05;8.38;;;1.30;99.90;;;;;;5036499;28;20049;-79
2023/03/08 05:55:04;;;;;;;16.33;7.65;;;1.30;99.90;;;;;;5035551;28;20136;-79
2023/03/08 05:57:31;;;;;;;16.15;7.20;;;1.20;99.90;;;;;;5020201;28;20050;-81
2023/03/08 05:59:59;;;;;;;17.92;7.75;;;1.20;99.90;;;;;;5036227;28;20060;-80
2023/03/08 06:02:26;;;;;;;13.77;6.40;;;1.20;99.90;;;;;;5035507;28;20076;-78
2023/03/08 06:04:54;;;;;;;13.20;6.18;;;1.20;99.90;;;;;;5036351;28;20065;-79
2023/03/08 06:07:22;;;;;;;14.15;6.00;;;1.20;99.90;;;;;;5019981;28;20033;-80
2023/03/08 06:10:00;;;;;;;14.50;6.88;;;1.20;99.90;;;;;;5020908;28;20072;-81
2023/03/08 06:12:26;;;;;;;13.25;6.07;;;1.30;99.90;;;;;;5037107;28;20045;-80
2023/03/08 06:14:56;;;;;;;12.73;5.50;;;1.20;99.90;;;;;;5035234;28;20380;-80
2023/03/08 06:17:26;;;;;;;14.80;4.95;;;1.30;99.90;;;;;;5019887;28;20059;-81
2023/03/08 06:19:56;;;;;;;11.23;5.25;;;1.20;99.90;;;;;;5035948;28;20072;-80
2023/03/08 06:22:23;;;;;;;12.18;4.65;;;1.20;99.90;;;;;;5035107;28;20037;-81
2023/03/08 06:24:50;;;;;;;12.40;5.45;;;1.20;99.90;;;;;;5019612;28;20049;-79
2023/03/08 06:27:24;;;;;;;13.93;4.72;;;1.20;99.90;;;;;;5036007;28;20041;-80
2023/03/08 06:32:40;;;;;;;20.25;5.07;;;1.20;99.90;;;;;;5035799;28;20502;-82
2023/03/08 06:35:06;;;;;;;48.45;6.25;;;1.20;99.90;;;;;;5034792;28;20440;-81
2023/03/08 06:37:37;;;;;;;16.02;4.80;;;1.20;99.90;;;;;;5035621;28;20073;-81
2023/03/08 06:42:53;;;;;;;11.23;4.60;;;1.20;99.90;;;;;;5034707;28;20099;-81
2023/03/08 06:45:20;;;;;;;10.68;4.50;;;1.20;99.90;;;;;;5019177;28;20403;-80
2023/03/08 06:47:46;;;;;;;10.98;4.13;;;1.20;99.90;;;;;;5035406;28;20041;-81
2023/03/08 06:53:01;;;;;;;11.63;4.70;;;1.20;99.90;;;;;;5035551;28;20057;-81
2023/03/08 06:55:48;;;;;;;10.27;4.22;;;1.30;99.90;;;;;;5035154;28;20128;-81
2023/03/08 07:01:03;;;;;;;8.65;3.67;;;1.30;99.90;;;;;;5034420;28;20053;-80
2023/03/08 07:03:29;;;;;;;9.88;4.20;;;1.40;99.90;;;;;;5036462;28;20414;-81
2023/03/08 07:05:56;;;;;;;10.40;4.07;;;1.40;99.90;;;;;;5035345;28;20051;-81
2023/03/08 07:08:24;;;;;;;10.55;4.15;;;1.40;99.90;;;;;;5017645;28;20171;-81
2023/03/08 07:10:50;;;;;;;10.73;3.40;;;1.40;99.90;;;;;;5035115;28;20060;-80
2023/03/08 07:13:17;;;;;;;9.27;3.95;;;1.40;99.90;;;;;;5034996;28;20482;-80
2023/03/08 07:15:44;;;;;;;10.60;3.47;;;1.40;99.90;;;;;;5035106;28;20127;-80
2023/03/08 07:20:57;;;;;;;17.83;3.83;;;1.50;99.90;;;;;;5035291;28;20371;-80
2023/03/08 07:23:24;;;;;;;9.65;3.55;;;1.50;99.90;;;;;;5035697;28;20041;-80
2023/03/08 07:25:50;;;;;;;8.38;3.50;;;1.50;99.90;;;;;;5035661;28;20038;-80
2023/03/08 07:28:20;;;;;;;9.32;3.25;;;1.60;99.90;;;;;;5017520;28;20063;-80
2023/03/08 07:30:47;;;;;;;7.32;3.35;;;1.60;99.90;;;;;;5035659;28;20049;-80
2023/03/08 07:33:14;;;;;;;6.63;2.70;;;1.50;99.90;;;;;;5035635;28;20047;-80
2023/03/08 07:35:41;;;;;;;9.15;3.33;;;1.50;99.90;;;;;;5034457;28;20387;-80
2023/03/08 07:38:08;;;;;;;6.82;2.80;;;1.60;99.90;;;;;;5034558;28;20056;-80
2023/03/08 07:40:34;;;;;;;7.95;2.70;;;1.60;99.90;;;;;;5034491;28;20380;-81
2023/03/08 07:43:01;;;;;;;10.07;2.83;;;1.60;99.90;;;;;;5033643;28;20424;-81
2023/03/08 07:45:36;;;;;;;7.85;3.08;;;1.60;99.90;;;;;;5019449;28;20096;-81
2023/03/08 07:48:05;;;;;;;8.93;2.97;;;1.60;99.90;;;;;;5034166;28;20042;-80
2023/03/08 07:50:32;;;;;;;10.77;2.90;;;1.60;99.90;;;;;;5035956;28;20072;-82
2023/03/08 07:52:58;;;;;;;6.40;2.47;;;1.60;99.90;;;;;;5054552;28;20040;-82
2023/03/08 07:55:26;;;;;;;8.07;3.30;;;1.60;99.90;;;;;;5036242;28;20040;-82
2023/03/08 07:57:53;;;;;;;6.20;2.72;;;1.60;99.90;;;;;;5047888;28;20147;-82
2023/03/08 08:03:07;;;;;;;6.38;2.65;;;1.60;99.90;;;;;;5047857;28;20055;-82
2023/03/08 08:05:34;;;;;;;6.38;3.00;;;1.60;99.90;;;;;;5048825;28;20076;-82
2023/03/08 08:08:01;;;;;;;6.00;3.05;;;1.60;99.90;;;;;;5042859;28;20514;-83
2023/03/08 08:10:28;;;;;;;9.30;3.40;;;1.60;99.90;;;;;;5053185;28;20090;-83
2023/03/08 08:12:55;;;;;;;12.98;3.75;;;1.70;99.90;;;;;;5058580;28;20033;-83
2023/03/08 08:15:24;;;;;;;9.35;3.65;;;1.70;99.90;;;;;;5031944;28;20045;-82
2023/03/08 08:17:50;;;;;;;32.03;4.88;;;1.70;99.90;;;;;;5025536;28;20045;-83
2023/03/08 08:20:17;;;;;;;8.80;4.22;;;1.70;99.90;;;;;;5033692;28;20456;-83
2023/03/08 08:22:44;;;;;;;9.35;4.40;;;1.70;99.90;;;;;;5016501;28;20136;-83
2023/03/08 08:25:10;;;;;;;9.13;4.80;;;1.70;99.90;;;;;;5033866;28;20128;-84
2023/03/08 08:27:37;;;;;;;8.18;4.45;;;1.80;99.90;;;;;;5033237;28;20049;-86
2023/03/08 08:30:05;;;;;;;9.23;4.93;;;1.80;99.90;;;;;;5017943;28;20063;-83
2023/03/08 08:32:32;;;;;;;8.85;4.45;;;1.80;99.90;;;;;;5035618;28;20059;-83
2023/03/08 08:34:58;;;;;;;9.70;5.10;;;1.80;99.90;;;;;;5043965;28;20462;-83
2023/03/08 08:37:26;;;;;;;10.80;5.50;;;1.90;99.90;;;;;;5040352;28;20051;-81
2023/03/08 08:39:54;;;;;;;11.48;5.43;;;1.90;99.90;;;;;;5070083;28;20036;-82
2023/03/08 08:42:20;;;;;;;10.40;5.65;;;1.90;99.90;;;;;;5072649;28;20044;-81
2023/03/08 08:44:47;;;;;;;9.35;5.32;;;1.90;99.90;;;;;;5052592;28;20029;-78
2023/03/08 08:47:14;;;;;;;12.32;5.55;;;1.90;99.90;;;;;;5049277;28;20052;-79
2023/03/08 08:49:43;;;;;;;11.27;5.40;;;2.00;99.90;;;;;;5061102;28;20049;-84
2023/03/08 08:52:10;;;;;;;9.32;4.90;;;2.10;99.90;;;;;;5073092;28;20060;-81
2023/03/08 08:54:38;;;;;;;10.50;5.15;;;2.10;99.90;;;;;;5072114;28;20036;-80
2023/03/08 08:57:05;;;;;;;8.57;4.75;;;2.10;99.90;;;;;;5049231;28;20049;-81
2023/03/08 08:59:32;;;;;;;13.73;4.60;;;2.10;99.90;;;;;;5033306;28;20037;-81
2023/03/08 09:01:58;;;;;;;8.73;4.88;;;2.10;99.90;;;;;;5032719;28;20042;-81
2023/03/08 09:04:25;;;;;;;11.25;5.07;;;2.10;99.90;;;;;;5032948;28;20133;-80
2023/03/08 09:06:53;;;;;;;10.73;4.45;;;2.10;99.90;;;;;;5032129;28;20511;-81
2023/03/08 09:09:19;;;;;;;10.52;5.00;;;2.10;99.90;;;;;;5031469;28;20041;-82
2023/03/08 09:11:47;;;;;;;9.48;5.30;;;2.10;99.90;;;;;;5016193;28;20057;-81
2023/03/08 09:14:21;;;;;;;12.85;5.40;;;2.10;99.90;;;;;;5031366;28;20439;-81
2023/03/08 09:16:47;;;;;;;10.02;5.88;;;2.10;99.90;;;;;;5032673;28;20045;-81
2023/03/08 09:19:14;;;;;;;8.70;5.00;;;2.10;99.90;;;;;;5048078;28;20377;-80
2023/03/08 09:21:41;;;;;;;12.52;4.65;;;2.10;99.90;;;;;;5056303;28;20048;-81
2023/03/08 09:24:09;;;;;;;10.30;4.75;;;2.10;99.90;;;;;;5057334;28;20043;-81
2023/03/08 09:26:35;;;;;;;9.60;4.47;;;2.10;99.90;;;;;;5057439;28;20037;-81
2023/03/08 09:29:04;;;;;;;17.55;4.25;;;2.10;99.90;;;;;;5055342;28;20052;-81
2023/03/08 09:31:31;;;;;;;7.03;3.60;;;2.20;99.90;;;;;;5056571;28;20049;-81
2023/03/08 09:33:58;;;;;;;7.80;4.07;;;2.20;99.90;;;;;;5056325;28;20041;-81
2023/03/08 09:36:27;;;;;;;8.65;3.83;;;2.20;99.90;;;;;;5054095;28;20480;-81
2023/03/08 09:38:54;;;;;;;9.88;3.80;;;2.20;99.90;;;;;;5056495;28;20475;-81
2023/03/08 09:41:21;;;;;;;8.50;3.75;;;2.20;99.90;;;;;;5034426;28;20421;-82
2023/03/08 09:43:48;;;;;;;8.43;3.70;;;2.20;99.90;;;;;;5021422;28;20067;-83
2023/03/08 09:46:15;;;;;;;12.25;3.90;;;2.30;99.90;;;;;;5038192;28;20054;-82
2023/03/08 09:48:43;;;;;;;8.65;3.50;;;2.30;99.90;;;;;;5035470;28;20045;-82
2023/03/08 09:51:10;;;;;;;8.27;3.70;;;2.30;99.90;;;;;;5037465;28;20069;-83
2023/03/08 09:53:37;;;;;;;12.75;4.35;;;2.30;99.90;;;;;;5037231;28;20069;-81
2023/03/08 09:56:03;;;;;;;10.55;4.15;;;2.40;99.90;;;;;;5036409;28;20041;-82
2023/03/08 09:58:30;;;;;;;8.55;3.90;;;2.40;99.90;;;;;;5036050;28;20045;-81
2023/03/08 10:00:57;;;;;;;10.05;4.72;;;2.40;99.90;;;;;;5035324;28;20050;-83
2023/03/08 10:03:23;;;;;;;11.40;3.92;;;2.40;99.90;;;;;;5037353;28;20045;-83
2023/03/08 10:05:50;;;;;;;8.57;4.03;;;2.40;99.90;;;;;;5036356;28;20033;-82
2023/03/08 10:08:17;;;;;;;9.02;4.22;;;2.40;99.90;;;;;;5034710;28;20140;-83
2023/03/08 10:10:43;;;;;;;12.23;4.13;;;2.40;99.90;;;;;;5036459;28;20048;-83
2023/03/08 10:13:10;;;;;;;9.15;3.90;;;2.40;99.90;;;;;;5035970;28;20049;-82
2023/03/08 10:15:37;;;;;;;11.88;4.20;;;2.40;99.90;;;;;;5018525;28;20064;-81
2023/03/08 10:18:07;;;;;;;10.48;3.90;;;2.40;99.90;;;;;;5035988;28;20463;-84
2023/03/08 10:20:36;;;;;;;12.73;4.25;;;2.40;99.90;;;;;;5036004;28;20499;-84
2023/03/08 10:23:03;;;;;;;9.43;4.10;;;2.40;99.90;;;;;;5018558;28;20041;-81
2023/03/08 10:25:30;;;;;;;13.82;4.10;;;2.40;99.90;;;;;;5036825;28;20041;-85
2023/03/08 10:27:56;;;;;;;11.23;4.20;;;2.30;99.90;;;;;;5018081;28;20136;-84
2023/03/08 10:30:23;;;;;;;13.82;4.03;;;2.40;99.90;;;;;;5035613;28;20097;-84
2023/03/08 10:32:50;;;;;;;14.70;3.78;;;2.40;99.90;;;;;;5035672;28;20045;-83
2023/03/08 10:35:16;;;;;;;9.93;3.90;;;2.40;99.90;;;;;;5034483;28;20123;-82
2023/03/08 10:37:43;;;;;;;7.63;3.55;;;2.40;99.90;;;;;;5035394;28;20049;-82
2023/03/08 10:40:10;;;;;;;13.57;3.63;;;2.40;99.90;;;;;;5037915;28;20052;-83
2023/03/08 10:42:36;;;;;;;10.57;3.42;;;2.50;99.90;;;;;;5055078;28;20064;-82
2023/03/08 10:45:03;;;;;;;10.85;3.33;;;2.50;99.90;;;;;;5038800;28;20094;-83
2023/03/08 10:47:29;;;;;;;10.70;3.53;;;2.50;99.90;;;;;;5054681;28;20033;-82
2023/03/08 10:49:56;;;;;;;8.07;3.45;;;2.50;99.90;;;;;;5055197;28;20478;-82
2023/03/08 10:52:23;;;;;;;7.32;2.63;;;2.50;99.90;;;;;;5055340;28;20041;-83
2023/03/08 10:54:50;;;;;;;8.10;3.20;;;2.50;99.90;;;;;;5054212;28;20483;-88
2023/03/08 10:57:22;;;;;;;7.82;3.40;;;2.60;99.90;;;;;;5055487;28;20049;-82
2023/03/08 10:59:48;;;;;;;10.05;3.38;;;2.60;99.90;;;;;;5055986;28;20364;-81
2023/03/08 11:02:15;;;;;;;10.57;2.97;;;2.60;99.90;;;;;;5053960;28;20057;-83
2023/03/08 11:04:42;;;;;;;7.30;3.42;;;2.60;99.90;;;;;;5055157;28;20048;-85
2023/03/08 11:07:09;;;;;;;8.70;3.33;;;2.70;99.90;;;;;;5037950;28;20045;-83
2023/03/08 11:09:36;;;;;;;7.78;3.58;;;2.70;99.90;;;;;;5054231;28;20111;-84
2023/03/08 11:12:02;;;;;;;11.40;3.55;;;2.70;99.90;;;;;;5055063;28;20477;-84
2023/03/08 11:14:29;;;;;;;11.18;3.75;;;2.70;99.90;;;;;;5053844;28;20387;-84
2023/03/08 11:16:56;;;;;;;11.07;3.80;;;2.80;99.90;;;;;;5055292;28;20037;-84
2023/03/08 11:19:23;;;;;;;8.38;3.63;;;2.70;99.90;;;;;;5051457;28;20069;-83
2023/03/08 11:21:50;;;;;;;8.30;3.45;;;2.80;99.90;;;;;;5033632;28;20037;-83
2023/03/08 11:24:17;;;;;;;8.55;3.40;;;2.80;99.90;;;;;;5034780;28;20049;-79
2023/03/08 11:26:44;;;;;;;8.23;3.25;;;2.80;99.90;;;;;;5035696;28;20065;-84
2023/03/08 11:29:11;;;;;;;10.10;3.55;;;2.80;99.90;;;;;;5045572;28;20071;-82
2023/03/08 11:31:38;;;;;;;8.68;3.33;;;2.80;99.90;;;;;;5074273;28;20649;-83
2023/03/08 11:34:05;;;;;;;7.45;3.03;;;2.80;99.90;;;;;;5075417;28;20051;-83
2023/03/08 11:36:31;;;;;;;8.43;3.15;;;2.80;99.90;;;;;;5073236;28;20387;-83
2023/03/08 11:38:59;;;;;;;6.38;3.00;;;2.80;99.90;;;;;;5074841;28;20044;-85
2023/03/08 11:41:26;;;;;;;11.07;4.07;;;2.90;99.90;;;;;;5072695;28;20625;-83
2023/03/08 11:43:52;;;;;;;9.00;3.25;;;2.90;99.90;;;;;;5074035;28;20043;-83
2023/03/08 11:46:19;;;;;;;9.02;3.03;;;2.90;99.90;;;;;;5073674;28;20363;-84
2023/03/08 11:48:46;;;;;;;11.82;3.30;;;2.90;99.90;;;;;;5072842;28;20435;-84
2023/03/08 11:51:13;;;;;;;9.23;3.22;;;2.80;99.90;;;;;;5075196;28;20467;-84
2023/03/08 11:53:39;;;;;;;11.70;3.58;;;2.80;99.90;;;;;;5074250;28;20044;-84
2023/03/08 11:56:09;;;;;;;8.90;3.10;;;2.90;99.90;;;;;;5073944;28;20048;-82
2023/03/08 11:58:35;;;;;;;10.13;3.03;;;2.90;99.90;;;;;;5073605;28;20109;-82
2023/03/08 12:01:02;;;;;;;6.88;2.92;;;2.80;99.90;;;;;;5073907;28;20047;-85
2023/03/08 12:03:29;;;;;;;10.43;3.00;;;2.90;99.90;;;;;;5075133;28;20041;-84
2023/03/08 12:05:59;;;;;;;7.05;3.20;;;2.90;99.90;;;;;;5057778;28;20044;-84
2023/03/08 12:10:56;;;;;;;8.65;2.75;;;2.90;99.90;;;;;;5033782;28;20056;-82
2023/03/08 12:13:23;;;;;;;7.32;2.90;;;2.90;99.90;;;;;;5039917;28;20045;-83
2023/03/08 12:15:50;;;;;;;12.45;3.20;;;2.90;99.90;;;;;;5029716;28;20140;-83
2023/03/08 12:18:19;;;;;;;7.28;3.55;;;2.90;99.90;;;;;;5033674;28;20034;-84
2023/03/08 12:20:45;;;;;;;9.88;2.80;;;2.90;99.90;;;;;;5033690;28;20356;-83
2023/03/08 12:23:12;;;;;;;12.52;3.20;;;2.90;99.90;;;;;;5033169;28;20033;-83
2023/03/08 12:25:38;;;;;;;9.25;3.05;;;2.80;99.90;;;;;;5019250;28;20042;-83
2023/03/08 12:28:07;;;;;;;6.72;3.10;;;2.80;99.90;;;;;;5049536;28;20033;-84
2023/03/08 12:30:34;;;;;;;8.98;3.20;;;2.80;99.90;;;;;;5033842;28;20130;-83
2023/03/08 12:33:00;;;;;;;8.40;3.13;;;2.80;99.90;;;;;;5033719;28;20049;-84
2023/03/08 12:35:27;;;;;;;7.63;3.28;;;2.80;99.90;;;;;;5032536;28;20460;-83
2023/03/08 12:37:54;;;;;;;8.90;3.28;;;2.80;99.90;;;;;;5033237;28;20084;-83
2023/03/08 12:40:21;;;;;;;9.05;2.97;;;2.80;99.90;;;;;;5017015;28;20045;-82
2023/03/08 12:42:48;;;;;;;9.05;3.40;;;2.80;99.90;;;;;;5032603;28;20033;-83
2023/03/08 12:45:14;;;;;;;9.60;3.17;;;2.80;99.90;;;;;;5053153;28;20033;-83
2023/03/08 12:47:41;;;;;;;7.63;3.30;;;2.80;99.90;;;;;;5053115;28;20045;-84
2023/03/08 12:50:09;;;;;;;8.45;3.17;;;2.80;99.90;;;;;;5018030;28;20132;-85
2023/03/08 12:52:35;;;;;;;7.57;3.28;;;2.80;99.90;;;;;;5042598;28;20045;-84
2023/03/08 12:55:04;;;;;;;8.43;3.33;;;2.90;99.90;;;;;;5040991;28;20461;-84
2023/03/08 12:57:31;;;;;;;9.10;3.20;;;2.80;99.90;;;;;;5042742;28;20052;-84
2023/03/08 12:59:59;;;;;;;8.35;3.22;;;2.90;99.90;;;;;;5047677;28;20122;-84
2023/03/08 13:02:25;;;;;;;7.28;3.00;;;2.80;99.90;;;;;;5069966;28;20470;-84
2023/03/08 13:04:52;;;;;;;8.52;3.53;;;2.80;99.90;;;;;;5048593;28;20439;-83
2023/03/08 13:07:19;;;;;;;6.20;3.10;;;2.80;99.90;;;;;;5059207;28;20124;-83
2023/03/08 13:12:31;;;;;;;6.93;2.95;;;2.90;99.90;;;;;;5053908;28;20053;-85
2023/03/08 13:14:58;;;;;;;8.38;3.20;;;2.90;99.90;;;;;;5064908;28;20497;-83
2023/03/08 13:17:25;;;;;;;8.38;3.45;;;2.90;99.90;;;;;;5048359;28;20154;-83
2023/03/08 13:19:52;;;;;;;7.43;3.55;;;2.90;99.90;;;;;;5058752;28;20060;-83
2023/03/08 13:22:18;;;;;;;8.18;3.50;;;2.80;99.90;;;;;;5064167;28;20048;-84
2023/03/08 13:24:45;;;;;;;11.35;3.25;;;2.80;99.90;;;;;;5044092;28;20044;-83
2023/03/08 13:27:12;;;;;;;11.15;3.42;;;2.80;99.90;;;;;;5064119;28;20145;-84
2023/03/08 13:32:25;;;;;;;9.05;3.17;;;2.80;99.90;;;;;;5070511;28;20105;-83
2023/03/08 13:34:52;;;;;;;10.30;3.35;;;2.80;99.90;;;;;;5046034;28;20043;-83
2023/03/08 13:37:18;;;;;;;8.13;3.13;;;2.80;99.90;;;;;;5043236;28;20423;-83